Terminal Aerodrome Forecast
Issued by NWS Albuquerque, NM

Home | Current Version | Previous Version | Text Only | Print | Product List | Glossary On
Versions: 1 2 3 4 5 6 7 8 9 10 11 12 13 14
662
FTUS45 KABQ 080525
TAFABQ
TAF
KABQ 080525Z 0806/0906 08020G28KT P6SM SCT060 SCT250
     FM081600 09008KT P6SM SCT200
     FM082100 12005KT P6SM FEW100=

USA.gov is the U.S. government's official web portal to all federal, state and local government web resources and services.